Time;durP1;ratioP1;P1;durP2;ratioP2;P2;SDS_P1;SDS_P2;PMS_P1;PMS_P2;Temp;Humidity;BMP_temperature;BMP_pressure;BME280_temperature;BME280_humidity;BME280_pressure;Samples;Min_cycle;Max_cycle;Signal;HPM_P1;HPM_P2
2023/05/30 00:03:01;;;;;;;;;;;;;;;21.75;42.31;95787.25;10308485;28;1858;-65
2023/05/30 00:08:01;;;;;;;;;;;;;;;21.78;42.25;95788.53;10306536;28;2056;-66
2023/05/30 00:13:02;;;;;;;;;;;;;;;21.77;42.43;95784.31;10295807;28;2115;-66
2023/05/30 00:18:02;;;;;;;;;;;;;;;21.79;42.58;95784.81;10305399;28;2026;-65
2023/05/30 00:23:03;;;;;;;;;;;;;;;21.79;42.66;95787.47;10310326;28;2002;-66
2023/05/30 00:28:07;;;;;;;;;;;;;;;21.78;42.70;95791.19;10306887;28;4629;-65
2023/05/30 00:33:07;;;;;;;;;;;;;;;21.79;42.83;95790.91;10306463;28;2000;-65
2023/05/30 00:38:07;;;;;;;;;;;;;;;21.80;42.48;95783.78;10304330;28;1972;-66
2023/05/30 00:43:07;;;;;;;;;;;;;;;21.80;42.79;95783.78;10305118;28;2319;-65
2023/05/30 00:48:08;;;;;;;;;;;;;;;21.81;42.60;95783.50;10303941;28;1998;-65
2023/05/30 00:53:08;;;;;;;;;;;;;;;21.80;42.64;95789.81;10292213;28;1953;-65
2023/05/30 00:58:08;;;;;;;;;;;;;;;21.80;42.58;95795.09;10305064;28;1980;-67
2023/05/30 01:03:08;;;;;;;;;;;;;;;21.80;42.27;95800.38;10290835;28;1981;-65
2023/05/30 01:08:10;;;;;;;;;;;;;;;21.79;41.93;95809.38;10286707;28;1972;-65
2023/05/30 01:13:15;;;;;;;;;;;;;;;21.78;41.92;95807.00;10296851;28;2074;-65
2023/05/30 01:18:37;;;;;;;;;;;;;;;21.76;41.61;95803.88;10304125;28;1936;-65
2023/05/30 01:23:56;;;;;;;;;;;;;;;21.73;41.41;95799.94;10307290;28;1938;-65
2023/05/30 01:28:56;;;;;;;;;;;;;;;21.73;41.46;95799.13;10304827;28;4552;-65
2023/05/30 01:33:56;;;;;;;;;;;;;;;21.71;41.49;95796.00;10304692;28;1984;-65
2023/05/30 01:38:57;;;;;;;;;;;;;;;21.70;41.44;95804.97;10301130;28;2257;-65
2023/05/30 01:43:58;;;;;;;;;;;;;;;21.71;41.64;95802.06;10301139;28;2210;-64
2023/05/30 01:49:14;;;;;;;;;;;;;;;21.71;41.45;95809.97;10293727;28;1839;-66
2023/05/30 01:54:16;;;;;;;;;;;;;;;21.71;41.32;95802.06;10302290;28;1922;-64
2023/05/30 01:59:17;;;;;;;;;;;;;;;21.71;41.36;95809.19;10302974;28;2009;-66
2023/05/30 02:04:17;;;;;;;;;;;;;;;21.71;41.29;95806.53;10283341;28;1864;-65
2023/05/30 02:09:17;;;;;;;;;;;;;;;21.68;41.04;95802.59;10304112;28;1917;-65
2023/05/30 02:14:17;;;;;;;;;;;;;;;21.65;40.68;95803.19;10305023;28;2053;-65
2023/05/30 02:19:18;;;;;;;;;;;;;;;21.61;40.66;95804.00;10305690;28;1831;-65
2023/05/30 02:24:18;;;;;;;;;;;;;;;21.61;40.51;95804.00;10310475;28;1873;-65
2023/05/30 02:29:18;;;;;;;;;;;;;;;21.61;40.68;95806.66;10312744;28;4425;-64
2023/05/30 02:34:19;;;;;;;;;;;;;;;21.60;40.36;95807.69;10311026;28;1910;-64
2023/05/30 02:39:19;;;;;;;;;;;;;;;21.62;40.34;95813.47;10310865;28;1918;-64
2023/05/30 02:44:19;;;;;;;;;;;;;;;21.59;40.24;95809.56;10306765;28;2140;-65
2023/05/30 02:49:20;;;;;;;;;;;;;;;21.58;40.21;95809.81;10307642;28;1902;-66
2023/05/30 02:54:20;;;;;;;;;;;;;;;21.56;40.14;95812.75;10308682;28;2048;-66
2023/05/30 02:59:21;;;;;;;;;;;;;;;21.56;40.01;95817.22;10304901;28;1905;-66
2023/05/30 03:04:21;;;;;;;;;;;;;;;21.55;40.02;95810.41;10305433;28;1902;-66
2023/05/30 03:09:21;;;;;;;;;;;;;;;21.54;40.03;95820.16;10309798;28;1822;-66
2023/05/30 03:14:21;;;;;;;;;;;;;;;21.54;39.66;95822.00;10310659;28;1987;-65
2023/05/30 03:19:22;;;;;;;;;;;;;;;21.50;39.55;95819.13;10308288;28;2062;-66
2023/05/30 03:24:22;;;;;;;;;;;;;;;21.48;39.47;95823.91;10312501;28;1902;-66
2023/05/30 03:29:23;;;;;;;;;;;;;;;21.47;39.42;95819.72;10305421;28;4398;-66
2023/05/30 03:34:23;;;;;;;;;;;;;;;21.50;39.55;95826.25;10307796;28;1981;-65
2023/05/30 03:39:24;;;;;;;;;;;;;;;21.50;39.87;95827.03;10310075;28;1946;-66
2023/05/30 03:44:24;;;;;;;;;;;;;;;21.52;39.72;95832.03;10310686;28;1886;-66
2023/05/30 03:49:25;;;;;;;;;;;;;;;21.52;39.86;95830.19;10305502;28;1851;-65
2023/05/30 03:54:25;;;;;;;;;;;;;;;21.54;39.91;95822.00;10304843;28;1976;-66
2023/05/30 03:59:25;;;;;;;;;;;;;;;21.55;39.88;95829.66;10305122;28;1839;-66
2023/05/30 04:04:26;;;;;;;;;;;;;;;21.55;39.78;95832.28;10311106;28;1958;-65
2023/05/30 04:09:26;;;;;;;;;;;;;;;21.55;40.06;95832.28;10304768;28;1835;-69
2023/05/30 04:14:27;;;;;;;;;;;;;;;21.56;40.01;95830.41;10306489;28;2022;-65
2023/05/30 04:19:27;;;;;;;;;;;;;;;21.56;39.88;95835.69;10303943;28;1971;-68
2023/05/30 04:24:29;;;;;;;;;;;;;;;21.56;40.09;95833.84;10307614;28;1879;-64
2023/05/30 04:29:29;;;;;;;;;;;;;;;21.55;39.95;95847.31;10306631;28;4425;-64
2023/05/30 04:34:30;;;;;;;;;;;;;;;21.55;39.67;95861.31;10307101;28;1969;-64
2023/05/30 04:39:30;;;;;;;;;;;;;;;21.55;40.00;95860.50;10305425;28;1952;-64
2023/05/30 04:44:37;;;;;;;;;;;;;;;21.54;39.57;95859.72;10307390;28;1851;-65
2023/05/30 04:49:39;;;;;;;;;;;;;;;21.46;38.85;95864.78;10306595;28;1870;-65
2023/05/30 04:54:39;;;;;;;;;;;;;;;21.44;38.79;95869.56;10306608;28;2109;-65
2023/05/30 04:59:40;;;;;;;;;;;;;;;21.43;38.99;95874.03;10301810;28;2040;-65
2023/05/30 05:04:40;;;;;;;;;;;;;;;21.41;38.80;95864.84;10301207;28;1955;-65
2023/05/30 05:09:41;;;;;;;;;;;;;;;21.39;38.72;95867.75;10305310;28;1913;-65
2023/05/30 05:14:42;;;;;;;;;;;;;;;21.39;38.57;95877.53;10305684;28;1958;-64
2023/05/30 05:19:42;;;;;;;;;;;;;;;21.38;38.74;95883.84;10301964;28;1898;-64
2023/05/30 05:24:44;;;;;;;;;;;;;;;21.37;38.61;95884.91;10303201;28;2387;-64
2023/05/30 05:29:44;;;;;;;;;;;;;;;21.36;38.66;95881.50;10299389;28;1907;-61
2023/05/30 05:34:44;;;;;;;;;;;;;;;21.37;38.62;95882.28;10303755;28;1977;-62
2023/05/30 05:39:45;;;;;;;;;;;;;;;21.42;39.21;95887.50;10300938;28;1954;-62
2023/05/30 05:44:45;;;;;;;;;;;;;;;21.46;39.34;95883.25;10302090;28;1910;-66
2023/05/30 05:49:45;;;;;;;;;;;;;;;21.48;39.73;95891.69;10300835;28;1910;-65
2023/05/30 05:54:45;;;;;;;;;;;;;;;21.52;39.96;95892.69;10305075;28;1975;-62
2023/05/30 05:59:46;;;;;;;;;;;;;;;21.54;40.35;95893.22;10303327;28;1919;-63
2023/05/30 06:04:47;;;;;;;;;;;;;;;21.55;40.30;95892.97;10301623;28;1879;-63
2023/05/30 06:09:47;;;;;;;;;;;;;;;21.56;40.13;95893.72;10296658;28;1894;-63
2023/05/30 06:14:47;;;;;;;;;;;;;;;21.57;40.09;95901.38;10299669;28;1981;-64
2023/05/30 06:19:49;;;;;;;;;;;;;;;21.57;40.18;95906.66;10303487;28;2152;-63
2023/05/30 06:24:49;;;;;;;;;;;;;;;21.58;40.32;95908.22;10286291;28;2022;-63
2023/05/30 06:29:49;;;;;;;;;;;;;;;21.58;40.07;95917.97;10292152;28;4509;-64
2023/05/30 06:34:50;;;;;;;;;;;;;;;21.55;39.88;95914.06;10305673;28;1958;-64
2023/05/30 06:39:50;;;;;;;;;;;;;;;21.54;40.13;95915.09;10302517;28;1867;-63
2023/05/30 06:44:50;;;;;;;;;;;;;;;21.55;39.96;95915.91;10307012;28;1867;-63
2023/05/30 06:49:51;;;;;;;;;;;;;;;21.55;39.81;95913.25;10295710;28;2014;-64
2023/05/30 06:54:51;;;;;;;;;;;;;;;21.56;39.79;95928.00;10303086;28;1961;-63
2023/05/30 06:59:51;;;;;;;;;;;;;;;21.56;39.90;95934.09;10304357;28;1901;-64
2023/05/30 07:04:51;;;;;;;;;;;;;;;21.55;39.87;95929.88;10307834;28;1907;-65
2023/05/30 07:09:52;;;;;;;;;;;;;;;21.58;39.92;95931.16;10306426;28;1851;-63
2023/05/30 07:14:52;;;;;;;;;;;;;;;21.56;39.74;95930.66;10307097;28;2276;-63
2023/05/30 07:19:52;;;;;;;;;;;;;;;21.55;39.71;95929.09;10313636;28;1925;-63
2023/05/30 07:24:52;;;;;;;;;;;;;;;21.56;40.01;95928.00;10309871;28;1887;-64
2023/05/30 07:29:53;;;;;;;;;;;;;;;21.56;40.14;95926.16;10306715;28;4433;-63
2023/05/30 07:34:54;;;;;;;;;;;;;;;21.59;40.05;95919.56;10305465;28;1991;-65
2023/05/30 07:39:54;;;;;;;;;;;;;;;21.58;40.19;95917.97;10305305;28;1997;-63
2023/05/30 07:44:54;;;;;;;;;;;;;;;21.55;39.98;95918.53;10308741;28;1878;-63
2023/05/30 07:49:55;;;;;;;;;;;;;;;21.55;39.74;95923.81;10312274;28;1916;-64
2023/05/30 07:54:55;;;;;;;;;;;;;;;21.55;39.78;95915.91;10310962;28;1977;-63
2023/05/30 07:59:56;;;;;;;;;;;;;;;21.55;39.94;95902.72;10306676;28;2072;-63
2023/05/30 08:04:56;;;;;;;;;;;;;;;21.57;39.85;95921.69;10304013;28;1890;-63
2023/05/30 08:09:57;;;;;;;;;;;;;;;21.56;39.92;95920.91;10309413;28;1898;-64
2023/05/30 08:14:57;;;;;;;;;;;;;;;21.55;39.95;95918.53;10308673;28;2877;-64
2023/05/30 08:19:57;;;;;;;;;;;;;;;21.55;39.67;95924.59;10306530;28;1901;-65
2023/05/30 08:24:59;;;;;;;;;;;;;;;21.55;39.62;95910.63;10307974;28;1953;-65
2023/05/30 08:30:00;;;;;;;;;;;;;;;21.56;39.98;95925.38;10309261;28;4343;-64
2023/05/30 08:35:00;;;;;;;;;;;;;;;21.56;39.91;95925.38;10308825;28;1954;-64
2023/05/30 08:40:00;;;;;;;;;;;;;;;21.57;39.97;95932.25;10302473;28;1945;-63
2023/05/30 08:45:03;;;;;;;;;;;;;;;21.57;39.65;95921.69;10304352;28;1907;-65
2023/05/30 08:50:03;;;;;;;;;;;;;;;21.59;39.97;95920.34;10304987;28;1887;-64
2023/05/30 08:55:07;;;;;;;;;;;;;;;21.60;39.89;95921.91;10309988;28;1910;-65
2023/05/30 09:00:09;;;;;;;;;;;;;;;21.61;39.84;95933.25;10290004;28;1866;-64
2023/05/30 09:05:09;;;;;;;;;;;;;;;21.59;39.97;95930.91;10306070;28;1959;-64
2023/05/30 09:10:10;;;;;;;;;;;;;;;21.59;40.03;95925.63;10300918;28;1852;-65
2023/05/30 09:15:10;;;;;;;;;;;;;;;21.60;39.93;95932.47;10307146;28;1993;-65
2023/05/30 09:20:11;;;;;;;;;;;;;;;21.62;40.06;95926.91;10275007;28;2024;-65
2023/05/30 09:25:12;;;;;;;;;;;;;;;21.62;39.90;95929.56;10313987;28;1897;-64
2023/05/30 09:30:13;;;;;;;;;;;;;;;21.63;39.81;95939.06;10296813;28;1992;-64
2023/05/30 09:35:13;;;;;;;;;;;;;;;21.62;40.15;95935.63;10304848;28;1907;-65
2023/05/30 09:40:16;;;;;;;;;;;;;;;21.63;39.88;95941.69;10303780;28;1862;-65
2023/05/30 09:45:18;;;;;;;;;;;;;;;21.64;40.33;95932.69;10303726;28;1882;-64
2023/05/30 09:50:19;;;;;;;;;;;;;;;21.65;40.40;95929.00;10303397;28;1914;-64
2023/05/30 09:55:19;;;;;;;;;;;;;;;21.66;40.17;95925.28;10305259;28;1989;-65
2023/05/30 10:00:25;;;;;;;;;;;;;;;21.67;40.24;95934.78;10307044;28;2195;-65
2023/05/30 10:05:25;;;;;;;;;;;;;;;21.68;40.51;95934.50;10302469;28;2295;-64
2023/05/30 10:10:26;;;;;;;;;;;;;;;21.69;40.24;95935.31;10305930;28;1914;-64
2023/05/30 10:15:27;;;;;;;;;;;;;;;21.69;40.65;95924.75;10301850;28;2056;-64
2023/05/30 10:20:27;;;;;;;;;;;;;;;21.69;40.44;95920.28;10303546;28;1807;-64
2023/05/30 10:25:28;;;;;;;;;;;;;;;21.70;40.65;95921.06;10303496;28;1973;-64
2023/05/30 10:30:28;;;;;;;;;;;;;;;21.71;40.28;95917.34;10292328;28;4540;-64
2023/05/30 10:35:29;;;;;;;;;;;;;;;21.71;40.26;95907.59;10303122;28;1898;-64
2023/05/30 10:40:38;;;;;;;;;;;;;;;21.72;40.53;95900.47;10307979;28;2017;-64
2023/05/30 10:46:05;;;;;;;;;;;;;;;21.71;40.43;95912.06;10309048;28;2190;-64
2023/05/30 10:51:05;;;;;;;;;;;;;;;21.73;40.34;95899.41;10302076;28;1919;-64
2023/05/30 10:56:28;;;;;;;;;;;;;;;21.72;40.39;95900.47;10307381;28;1954;-62
2023/05/30 11:01:29;;;;;;;;;;;;;;;21.73;40.44;95884.34;10298453;28;2485;-64
2023/05/30 11:06:34;;;;;;;;;;;;;;;21.75;40.57;95887.50;10311941;28;1933;-64
2023/05/30 11:11:44;;;;;;;;;;;;;;;21.75;40.45;95894.63;10312532;28;1958;-62
2023/05/30 11:16:59;;;;;;;;;;;;;;;21.76;40.48;95888.31;10309205;28;2240;-63
2023/05/30 11:21:59;;;;;;;;;;;;;;;21.76;40.34;95875.09;10307491;28;1899;-64
2023/05/30 11:27:01;;;;;;;;;;;;;;;21.75;40.62;95884.88;10313093;28;4457;-63
2023/05/30 11:32:05;;;;;;;;;;;;;;;21.77;40.44;95895.13;10316633;28;1895;-63
2023/05/30 11:37:06;;;;;;;;;;;;;;;21.76;40.51;95883.78;10307528;28;1859;-63
2023/05/30 11:42:07;;;;;;;;;;;;;;;21.76;40.62;95875.09;10313184;28;1882;-63
2023/05/30 11:47:10;;;;;;;;;;;;;;;21.79;40.45;95880.59;10310992;28;1844;-64
2023/05/30 11:52:12;;;;;;;;;;;;;;;21.80;40.58;95889.31;10309747;28;2014;-64
2023/05/30 11:57:16;;;;;;;;;;;;;;;21.79;40.18;95885.88;10309567;28;1903;-64
2023/05/30 12:02:17;;;;;;;;;;;;;;;21.80;40.24;95870.84;10311569;28;1828;-64
2023/05/30 12:07:17;;;;;;;;;;;;;;;21.80;40.09;95868.22;10305047;28;1934;-64
2023/05/30 12:12:17;;;;;;;;;;;;;;;21.80;40.09;95862.94;10309139;28;1893;-64
2023/05/30 12:17:18;;;;;;;;;;;;;;;21.80;40.04;95871.59;10306185;28;1873;-64
2023/05/30 12:22:18;;;;;;;;;;;;;;;21.81;40.01;95864.50;10305177;28;1933;-64
2023/05/30 12:27:22;;;;;;;;;;;;;;;21.80;39.96;95876.88;10308402;28;4370;-64
2023/05/30 12:32:23;;;;;;;;;;;;;;;21.80;40.13;95857.66;10306676;28;1961;-64
2023/05/30 12:37:23;;;;;;;;;;;;;;;21.80;40.02;95862.94;10307962;28;2169;-64
2023/05/30 12:42:24;;;;;;;;;;;;;;;21.80;40.08;95871.59;10302458;28;1875;-64
2023/05/30 12:47:24;;;;;;;;;;;;;;;21.79;40.08;95880.59;10308347;28;1942;-63
2023/05/30 12:52:25;;;;;;;;;;;;;;;21.78;40.03;95860.53;10304562;28;2305;-63
2023/05/30 12:57:25;;;;;;;;;;;;;;;21.79;39.68;95883.25;10301877;28;1957;-64
2023/05/30 13:02:26;;;;;;;;;;;;;;;21.77;39.66;95853.72;10309070;28;1973;-66
2023/05/30 13:07:27;;;;;;;;;;;;;;;21.79;39.71;95869.25;10306496;28;1925;-63
2023/05/30 13:12:27;;;;;;;;;;;;;;;21.78;39.63;95865.81;10302297;28;1952;-64
2023/05/30 13:17:27;;;;;;;;;;;;;;;21.80;39.79;95868.22;10304860;28;1861;-63
2023/05/30 13:22:28;;;;;;;;;;;;;;;21.81;39.80;95867.94;10306392;28;1915;-65
2023/05/30 13:27:28;;;;;;;;;;;;;;;21.82;39.63;95860.84;10301649;28;1921;-64
2023/05/30 13:32:28;;;;;;;;;;;;;;;21.83;39.56;95865.03;10304786;28;1910;-64
2023/05/30 13:37:28;;;;;;;;;;;;;;;21.82;39.78;95866.09;10307978;28;1950;-63
2023/05/30 13:42:29;;;;;;;;;;;;;;;21.82;39.49;95855.56;10302647;28;1948;-64
2023/05/30 13:47:29;;;;;;;;;;;;;;;21.84;39.86;95869.25;10302982;28;2059;-64
2023/05/30 13:52:29;;;;;;;;;;;;;;;21.84;39.63;95863.97;10311229;28;2571;-64
2023/05/30 13:57:29;;;;;;;;;;;;;;;21.84;39.58;95879.81;10305757;28;1871;-64
2023/05/30 14:02:31;;;;;;;;;;;;;;;21.83;39.57;95863.19;10303630;28;1905;-64
2023/05/30 14:07:32;;;;;;;;;;;;;;;21.84;39.47;95872.66;10300276;28;2052;-63
2023/05/30 14:12:32;;;;;;;;;;;;;;;21.84;39.59;95859.47;10303167;28;1972;-64
2023/05/30 14:17:33;;;;;;;;;;;;;;;21.85;39.51;95862.91;10310390;28;1873;-57
2023/05/30 14:22:33;;;;;;;;;;;;;;;21.84;39.44;95863.97;10317916;28;1918;-64
2023/05/30 14:27:33;;;;;;;;;;;;;;;21.83;39.46;95863.19;10308992;28;4386;-63
2023/05/30 14:32:33;;;;;;;;;;;;;;;21.83;39.40;95859.75;10306716;28;1922;-64
2023/05/30 14:37:34;;;;;;;;;;;;;;;21.84;39.30;95854.19;10309574;28;1889;-64
2023/05/30 14:42:34;;;;;;;;;;;;;;;21.85;39.47;95865.53;10311784;28;1891;-63
2023/05/30 14:47:35;;;;;;;;;;;;;;;21.85;39.26;95860.25;10310336;28;1933;-63
2023/05/30 14:52:35;;;;;;;;;;;;;;;21.84;39.15;95861.34;10310934;28;1917;-63
2023/05/30 14:57:36;;;;;;;;;;;;;;;21.84;39.57;95848.16;10313194;28;1894;-64
2023/05/30 15:02:36;;;;;;;;;;;;;;;21.84;39.01;95842.88;10312621;28;1932;-64
2023/05/30 15:07:36;;;;;;;;;;;;;;;21.83;39.23;95846.56;10309361;28;1917;-63
2023/05/30 15:12:36;;;;;;;;;;;;;;;21.82;38.84;95855.56;10307724;28;1914;-64
2023/05/30 15:17:37;;;;;;;;;;;;;;;21.82;38.81;95861.59;10310871;28;1910;-63
2023/05/30 15:22:37;;;;;;;;;;;;;;;21.82;38.99;95863.47;10307580;28;1973;-63
2023/05/30 15:27:37;;;;;;;;;;;;;;;21.83;39.05;95857.13;10308660;28;4540;-64
2023/05/30 15:32:37;;;;;;;;;;;;;;;21.83;39.14;95852.63;10311067;28;2081;-64
2023/05/30 15:37:38;;;;;;;;;;;;;;;21.84;38.80;95869.25;10309507;28;1926;-63
2023/05/30 15:42:38;;;;;;;;;;;;;;;21.83;38.80;95865.03;10308417;28;2369;-64
2023/05/30 15:47:38;;;;;;;;;;;;;;;21.82;38.75;95845.75;10304862;28;1884;-64
2023/05/30 15:52:39;;;;;;;;;;;;;;;21.82;38.77;95853.69;10307515;28;1942;-64
2023/05/30 15:57:39;;;;;;;;;;;;;;;21.83;39.01;95857.91;10307152;28;1839;-64
2023/05/30 16:02:40;;;;;;;;;;;;;;;21.83;38.85;95849.19;10306087;28;2063;-63
2023/05/30 16:07:40;;;;;;;;;;;;;;;21.83;38.80;95851.84;10307305;28;1902;-63
2023/05/30 16:12:40;;;;;;;;;;;;;;;21.84;39.11;95845.50;10306362;28;1957;-63
2023/05/30 16:17:40;;;;;;;;;;;;;;;21.84;39.29;95840.22;10305404;28;1906;-64
2023/05/30 16:22:41;;;;;;;;;;;;;;;21.84;39.06;95842.88;10307235;28;1906;-63
2023/05/30 16:27:42;;;;;;;;;;;;;;;21.85;38.90;95841.78;10311395;28;4416;-63
2023/05/30 16:32:42;;;;;;;;;;;;;;;21.84;39.21;95856.06;10306123;28;1994;-63
2023/05/30 16:37:42;;;;;;;;;;;;;;;21.83;38.87;95841.28;10307479;28;2276;-63
2023/05/30 16:42:43;;;;;;;;;;;;;;;21.83;38.91;95847.34;10303981;28;1870;-63
2023/05/30 16:47:43;;;;;;;;;;;;;;;21.83;39.06;95847.34;10304650;28;1867;-64
2023/05/30 16:52:43;;;;;;;;;;;;;;;21.82;39.24;95851.03;10304119;28;1914;-65
2023/05/30 16:57:43;;;;;;;;;;;;;;;21.83;39.01;95850.00;10303818;28;2164;-64
2023/05/30 17:02:44;;;;;;;;;;;;;;;21.85;38.84;95842.59;10293311;28;1944;-65
2023/05/30 17:07:44;;;;;;;;;;;;;;;21.86;38.70;95846.78;10307766;28;1914;-67
2023/05/30 17:12:45;;;;;;;;;;;;;;;21.90;38.59;95841.75;10305523;28;1930;-63
2023/05/30 17:17:46;;;;;;;;;;;;;;;21.87;39.25;95850.22;10295648;28;1899;-64
2023/05/30 17:22:46;;;;;;;;;;;;;;;21.89;39.32;95850.72;10304470;28;1839;-65
2023/05/30 17:27:46;;;;;;;;;;;;;;;21.93;39.73;95856.25;10300251;28;1843;-66
2023/05/30 17:32:47;;;;;;;;;;;;;;;21.92;39.94;95871.28;10304585;28;1982;-64
2023/05/30 17:37:47;;;;;;;;;;;;;;;21.93;40.00;95870.22;10300793;28;1877;-64
2023/05/30 17:42:48;;;;;;;;;;;;;;;21.94;39.77;95874.44;10297518;28;1945;-64
2023/05/30 17:47:49;;;;;;;;;;;;;;;21.92;39.51;95875.78;10304771;28;1851;-63
2023/05/30 17:52:49;;;;;;;;;;;;;;;21.90;39.15;95883.19;10302523;28;1963;-64
2023/05/30 17:57:50;;;;;;;;;;;;;;;21.87;38.83;95892.44;10302985;28;1878;-64
2023/05/30 18:02:50;;;;;;;;;;;;;;;21.82;38.23;95892.50;10302307;28;1946;-64
2023/05/30 18:07:50;;;;;;;;;;;;;;;21.81;38.24;95896.97;10301433;28;1899;-64
2023/05/30 18:12:51;;;;;;;;;;;;;;;21.79;38.23;95899.06;10285887;28;1941;-64
2023/05/30 18:17:52;;;;;;;;;;;;;;;21.79;38.19;95919.41;10289928;28;1884;-65
2023/05/30 18:22:52;;;;;;;;;;;;;;;21.79;38.26;95914.13;10298520;28;1883;-63
2023/05/30 18:27:53;;;;;;;;;;;;;;;21.79;38.21;95914.13;10301084;28;4400;-63
2023/05/30 18:32:53;;;;;;;;;;;;;;;21.80;38.57;95918.34;10300326;28;2351;-63
2023/05/30 18:37:53;;;;;;;;;;;;;;;21.82;38.37;95926.81;10298391;28;1934;-63
2023/05/30 18:42:54;;;;;;;;;;;;;;;21.82;38.33;95922.28;10298117;28;1870;-63
2023/05/30 18:47:55;;;;;;;;;;;;;;;21.83;38.70;95926.50;10300903;28;1883;-64
2023/05/30 18:52:55;;;;;;;;;;;;;;;21.89;38.57;95932.53;10301900;28;1968;-62
2023/05/30 18:57:56;;;;;;;;;;;;;;;21.90;38.99;95933.31;10298226;28;1937;-61
2023/05/30 19:02:56;;;;;;;;;;;;;;;21.91;39.08;95942.84;10304367;28;1883;-61
2023/05/30 19:07:57;;;;;;;;;;;;;;;21.90;38.99;95942.03;10303482;28;1840;-61
2023/05/30 19:12:57;;;;;;;;;;;;;;;21.91;39.39;95954.16;10308498;28;1923;-62
2023/05/30 19:17:57;;;;;;;;;;;;;;;21.91;39.48;95954.16;10309091;28;1874;-61
2023/05/30 19:22:57;;;;;;;;;;;;;;;21.92;39.54;95960.22;10305778;28;1847;-61
2023/05/30 19:28:04;;;;;;;;;;;;;;;21.92;39.22;95971.56;10301383;28;4393;-61
2023/05/30 19:33:05;;;;;;;;;;;;;;;21.91;39.05;95974.50;10306199;28;1921;-61
2023/05/30 19:38:05;;;;;;;;;;;;;;;21.92;39.10;95973.41;10306608;28;1957;-61
2023/05/30 19:43:05;;;;;;;;;;;;;;;21.93;38.96;95982.94;10303214;28;1888;-61
2023/05/30 19:48:06;;;;;;;;;;;;;;;21.93;38.97;95975.00;10304564;28;1939;-61
2023/05/30 19:53:06;;;;;;;;;;;;;;;21.92;38.71;95971.56;10302322;28;1955;-61
2023/05/30 19:58:07;;;;;;;;;;;;;;;21.93;38.87;95990.84;10304069;28;1870;-63
2023/05/30 20:03:08;;;;;;;;;;;;;;;21.96;39.21;95987.63;10303032;28;1908;-62
2023/05/30 20:08:08;;;;;;;;;;;;;;;21.99;39.04;95987.88;10303878;28;1927;-61
2023/05/30 20:13:08;;;;;;;;;;;;;;;22.02;39.20;95989.97;10303718;28;1960;-63
2023/05/30 20:18:10;;;;;;;;;;;;;;;22.04;38.99;95987.03;10307426;28;1897;-62
2023/05/30 20:23:10;;;;;;;;;;;;;;;22.08;39.34;95988.84;10304118;28;2262;-62
2023/05/30 20:28:16;;;;;;;;;;;;;;;22.12;39.29;95995.16;10305205;28;1893;-63
2023/05/30 20:33:17;;;;;;;;;;;;;;;22.11;39.62;95996.25;10308552;28;1921;-62
2023/05/30 20:38:17;;;;;;;;;;;;;;;22.14;39.53;95989.59;10307527;28;1904;-62
2023/05/30 20:43:19;;;;;;;;;;;;;;;22.16;39.81;95998.03;10303523;28;1902;-64
2023/05/30 20:48:19;;;;;;;;;;;;;;;22.18;39.72;95995.91;10301001;28;1973;-64
2023/05/30 20:53:19;;;;;;;;;;;;;;;22.18;39.63;95994.06;10300474;28;1883;-63
2023/05/30 20:58:23;;;;;;;;;;;;;;;22.17;39.82;95997.78;10304249;28;1835;-63
2023/05/30 21:03:23;;;;;;;;;;;;;;;22.16;39.65;96001.47;10299731;28;1858;-63
2023/05/30 21:08:24;;;;;;;;;;;;;;;22.16;39.91;95998.81;10300323;28;1992;-63
2023/05/30 21:13:24;;;;;;;;;;;;;;;22.15;39.58;96002.53;10302924;28;1910;-63
2023/05/30 21:18:24;;;;;;;;;;;;;;;22.15;39.40;96007.81;10298424;28;2312;-63
2023/05/30 21:23:24;;;;;;;;;;;;;;;22.12;39.36;96004.94;10306289;28;2019;-63
2023/05/30 21:28:25;;;;;;;;;;;;;;;22.11;39.39;96004.16;10302364;28;4240;-63
2023/05/30 21:33:25;;;;;;;;;;;;;;;22.08;39.24;96009.97;10297585;28;1922;-64
2023/05/30 21:38:25;;;;;;;;;;;;;;;22.06;39.20;96012.09;10299595;28;2082;-63
2023/05/30 21:43:26;;;;;;;;;;;;;;;22.02;39.18;96007.66;10298481;28;1910;-63
2023/05/30 21:48:26;;;;;;;;;;;;;;;22.00;39.33;96015.06;10302442;28;1885;-64
2023/05/30 21:53:26;;;;;;;;;;;;;;;21.97;38.94;96010.34;10300116;28;1895;-64
2023/05/30 21:58:26;;;;;;;;;;;;;;;21.91;39.02;96001.66;10299959;28;1878;-64
2023/05/30 22:03:29;;;;;;;;;;;;;;;21.91;38.69;96003.53;10298327;28;1889;-64
2023/05/30 22:08:30;;;;;;;;;;;;;;;21.90;38.90;96001.94;10303669;28;1893;-63
2023/05/30 22:13:30;;;;;;;;;;;;;;;21.87;38.74;95995.34;10300149;28;2167;-64
2023/05/30 22:18:30;;;;;;;;;;;;;;;21.86;38.88;96002.47;10308487;28;2270;-65
2023/05/30 22:23:30;;;;;;;;;;;;;;;21.85;38.88;95997.47;10301341;28;1948;-64
2023/05/30 22:28:32;;;;;;;;;;;;;;;21.85;39.01;96005.41;10305779;28;4600;-64
2023/05/30 22:33:32;;;;;;;;;;;;;;;21.82;38.89;95993.53;10298735;28;1914;-64
2023/05/30 22:38:32;;;;;;;;;;;;;;;21.80;38.83;95994.88;10312361;28;2144;-64
2023/05/30 22:43:32;;;;;;;;;;;;;;;21.80;38.72;95989.59;10311600;28;1910;-64
2023/05/30 22:48:33;;;;;;;;;;;;;;;21.78;38.60;95986.44;10306640;28;1924;-63
2023/05/30 22:53:33;;;;;;;;;;;;;;;21.77;38.67;95990.13;10315471;28;1892;-64
2023/05/30 22:58:33;;;;;;;;;;;;;;;21.76;38.74;95983.28;10303809;28;1839;-63
2023/05/30 23:03:33;;;;;;;;;;;;;;;21.76;39.11;95978.78;10307849;28;1882;-63
2023/05/30 23:08:34;;;;;;;;;;;;;;;21.76;38.90;95980.66;10305744;28;1894;-63
2023/05/30 23:13:34;;;;;;;;;;;;;;;21.75;38.79;95984.34;10306367;28;1930;-63
2023/05/30 23:18:35;;;;;;;;;;;;;;;21.71;38.82;95970.13;10309830;28;1942;-63
2023/05/30 23:23:35;;;;;;;;;;;;;;;21.70;38.55;95974.59;10305856;28;1882;-63
2023/05/30 23:28:35;;;;;;;;;;;;;;;21.66;38.18;95970.94;10311261;28;4310;-63
2023/05/30 23:33:36;;;;;;;;;;;;;;;21.64;37.84;95972.28;10311161;28;2133;-63
2023/05/30 23:38:36;;;;;;;;;;;;;;;21.61;37.79;95975.47;10307374;28;1851;-63
2023/05/30 23:43:36;;;;;;;;;;;;;;;21.59;37.75;95973.13;10307817;28;1961;-63
2023/05/30 23:48:37;;;;;;;;;;;;;;;21.57;37.74;95972.59;10309709;28;1916;-63
2023/05/30 23:53:37;;;;;;;;;;;;;;;21.55;37.16;95966.81;10308441;28;1891;-63
2023/05/30 23:58:37;;;;;;;;;;;;;;;21.52;37.16;95963.91;10307348;28;1889;-63
